<?xml version="1.0" encoding="UTF-8" standalone="no" ?>
<gpx xmlns="http://www.topografix.com/GPX/1/1" xmlns:xsi="http://www.w3.org/2001/XMLSchema-instance" xsi:schemaLocation="http://www.topografix.com/GPX/1/1 http://www.topografix.com/GPX/1/1/gpx.xsd" version="1.1" creator="VisuGPX - https://www.visugpx.com">
  <metadata>
    <name>Vertou_ChateauThebaudClisson_20-30km</name>
    <desc><![CDATA[gnerando idor:7030879_8004523_15824577]]></desc>
  </metadata>
  <wpt lat="47.16584" lon="-1.47958">
    <ele>4</ele>
    <name><![CDATA[0001156]]></name>
  </wpt>
  <wpt lat="47.12025" lon="-1.4203">
    <ele>48</ele>
    <name><![CDATA[chauviniere Cave]]></name>
  </wpt>
  <wpt lat="47.12582" lon="-1.41639">
    <ele>23.7</ele>
    <name><![CDATA[0001158]]></name>
  </wpt>
  <wpt lat="47.12602" lon="-1.41622">
    <ele>21.7</ele>
    <name><![CDATA[0001159]]></name>
  </wpt>
  <wpt lat="47.16576" lon="-1.47955">
    <ele>4</ele>
    <name><![CDATA[0001160]]></name>
  </wpt>
  <trk>
    <name><![CDATA[Vertou_CheneChateauThebaud_21.3km-15824577]]></name>
    <extensions>
      <line xmlns="http://www.topografix.com/GPX/gpx_style/0/2">
        <color>FF0000</color>
        <width>4</width>
      </line>
    </extensions>
    <trkseg>
      <trkpt lat="47.16584" lon="-1.47958">
        <ele>6</ele>
        <time>2023-11-14T06:25:48Z</time>
      </trkpt>
      <trkpt lat="47.16575" lon="-1.47984">
        <ele>5</ele>
        <time>2023-11-14T06:26:14Z</time>
      </trkpt>
      <trkpt lat="47.16556" lon="-1.48">
        <ele>5</ele>
        <time>2023-11-14T06:26:44Z</time>
      </trkpt>
      <trkpt lat="47.16535" lon="-1.4801">
        <ele>5</ele>
        <time>2023-11-14T06:27:13Z</time>
      </trkpt>
      <trkpt lat="47.1652" lon="-1.48033">
        <ele>5</ele>
        <time>2023-11-14T06:27:42Z</time>
      </trkpt>
      <trkpt lat="47.16509" lon="-1.48061">
        <ele>5</ele>
        <time>2023-11-14T06:28:11Z</time>
      </trkpt>
      <trkpt lat="47.16506" lon="-1.48119">
        <ele>5</ele>
        <time>2023-11-14T06:29:04Z</time>
      </trkpt>
      <trkpt lat="47.16511" lon="-1.48146">
        <ele>4</ele>
        <time>2023-11-14T06:29:30Z</time>
      </trkpt>
      <trkpt lat="47.16499" lon="-1.48168">
        <ele>4</ele>
        <time>2023-11-14T06:29:55Z</time>
      </trkpt>
      <trkpt lat="47.1648" lon="-1.48181">
        <ele>5</ele>
        <time>2023-11-14T06:30:23Z</time>
      </trkpt>
      <trkpt lat="47.16461" lon="-1.48198">
        <ele>5</ele>
        <time>2023-11-14T06:30:53Z</time>
      </trkpt>
      <trkpt lat="47.16439" lon="-1.48201">
        <ele>5</ele>
        <time>2023-11-14T06:31:22Z</time>
      </trkpt>
      <trkpt lat="47.1642" lon="-1.48201">
        <ele>5</ele>
        <time>2023-11-14T06:31:48Z</time>
      </trkpt>
      <trkpt lat="47.16355" lon="-1.48193">
        <ele>8</ele>
        <time>2023-11-14T06:33:15Z</time>
      </trkpt>
      <trkpt lat="47.16333" lon="-1.48184">
        <ele>9</ele>
        <time>2023-11-14T06:33:45Z</time>
      </trkpt>
      <trkpt lat="47.16315" lon="-1.48165">
        <ele>9</ele>
        <time>2023-11-14T06:34:15Z</time>
      </trkpt>
      <trkpt lat="47.16268" lon="-1.48106">
        <ele>9</ele>
        <time>2023-11-14T06:35:37Z</time>
      </trkpt>
      <trkpt lat="47.1625" lon="-1.48089">
        <ele>8</ele>
        <time>2023-11-14T06:36:06Z</time>
      </trkpt>
      <trkpt lat="47.16239" lon="-1.48065">
        <ele>8</ele>
        <time>2023-11-14T06:36:32Z</time>
      </trkpt>
      <trkpt lat="47.16205" lon="-1.48029">
        <ele>7</ele>
        <time>2023-11-14T06:37:28Z</time>
      </trkpt>
      <trkpt lat="47.16193" lon="-1.48">
        <ele>6</ele>
        <time>2023-11-14T06:37:59Z</time>
      </trkpt>
      <trkpt lat="47.16196" lon="-1.47972">
        <ele>5</ele>
        <time>2023-11-14T06:38:24Z</time>
      </trkpt>
      <trkpt lat="47.16187" lon="-1.47943">
        <ele>5</ele>
        <time>2023-11-14T06:38:53Z</time>
      </trkpt>
      <trkpt lat="47.16172" lon="-1.47923">
        <ele>5</ele>
        <time>2023-11-14T06:39:20Z</time>
      </trkpt>
      <trkpt lat="47.1616" lon="-1.47894">
        <ele>5</ele>
        <time>2023-11-14T06:39:51Z</time>
      </trkpt>
      <trkpt lat="47.16157" lon="-1.47863">
        <ele>5</ele>
        <time>2023-11-14T06:40:20Z</time>
      </trkpt>
      <trkpt lat="47.16146" lon="-1.47804">
        <ele>5</ele>
        <time>2023-11-14T06:41:15Z</time>
      </trkpt>
      <trkpt lat="47.1613" lon="-1.47786">
        <ele>5</ele>
        <time>2023-11-14T06:41:42Z</time>
      </trkpt>
      <trkpt lat="47.16089" lon="-1.47675">
        <ele>5</ele>
        <time>2023-11-14T06:43:37Z</time>
      </trkpt>
      <trkpt lat="47.16063" lon="-1.47631">
        <ele>5</ele>
        <time>2023-11-14T06:44:29Z</time>
      </trkpt>
      <trkpt lat="47.16053" lon="-1.47606">
        <ele>5</ele>
        <time>2023-11-14T06:44:56Z</time>
      </trkpt>
      <trkpt lat="47.16038" lon="-1.4758">
        <ele>6</ele>
        <time>2023-11-14T06:45:27Z</time>
      </trkpt>
      <trkpt lat="47.16022" lon="-1.47561">
        <ele>6</ele>
        <time>2023-11-14T06:45:54Z</time>
      </trkpt>
      <trkpt lat="47.15993" lon="-1.47514">
        <ele>8</ele>
        <time>2023-11-14T06:46:52Z</time>
      </trkpt>
      <trkpt lat="47.15945" lon="-1.47463">
        <ele>8</ele>
        <time>2023-11-14T06:48:11Z</time>
      </trkpt>
      <trkpt lat="47.15926" lon="-1.47452">
        <ele>8</ele>
        <time>2023-11-14T06:48:38Z</time>
      </trkpt>
      <trkpt lat="47.15911" lon="-1.47435">
        <ele>9</ele>
        <time>2023-11-14T06:49:03Z</time>
      </trkpt>
      <trkpt lat="47.15886" lon="-1.47387">
        <ele>10</ele>
        <time>2023-11-14T06:49:58Z</time>
      </trkpt>
      <trkpt lat="47.15872" lon="-1.47366">
        <ele>10</ele>
        <time>2023-11-14T06:50:25Z</time>
      </trkpt>
      <trkpt lat="47.15863" lon="-1.47341">
        <ele>10</ele>
        <time>2023-11-14T06:50:51Z</time>
      </trkpt>
      <trkpt lat="47.15837" lon="-1.47302">
        <ele>9</ele>
        <time>2023-11-14T06:51:40Z</time>
      </trkpt>
      <trkpt lat="47.15818" lon="-1.47283">
        <ele>9</ele>
        <time>2023-11-14T06:52:11Z</time>
      </trkpt>
      <trkpt lat="47.15791" lon="-1.47285">
        <ele>7</ele>
        <time>2023-11-14T06:52:47Z</time>
      </trkpt>
      <trkpt lat="47.15751" lon="-1.47278">
        <ele>5</ele>
        <time>2023-11-14T06:53:41Z</time>
      </trkpt>
      <trkpt lat="47.1573" lon="-1.47271">
        <ele>5</ele>
        <time>2023-11-14T06:54:09Z</time>
      </trkpt>
      <trkpt lat="47.15672" lon="-1.47264">
        <ele>4</ele>
        <time>2023-11-14T06:55:27Z</time>
      </trkpt>
      <trkpt lat="47.15653" lon="-1.4725">
        <ele>4</ele>
        <time>2023-11-14T06:55:55Z</time>
      </trkpt>
      <trkpt lat="47.15629" lon="-1.47237">
        <ele>5</ele>
        <time>2023-11-14T06:56:29Z</time>
      </trkpt>
      <trkpt lat="47.15608" lon="-1.47233">
        <ele>6</ele>
        <time>2023-11-14T06:56:58Z</time>
      </trkpt>
      <trkpt lat="47.15589" lon="-1.47235">
        <ele>6</ele>
        <time>2023-11-14T06:57:23Z</time>
      </trkpt>
      <trkpt lat="47.1557" lon="-1.4723">
        <ele>7</ele>
        <time>2023-11-14T06:57:49Z</time>
      </trkpt>
      <trkpt lat="47.15551" lon="-1.47221">
        <ele>7</ele>
        <time>2023-11-14T06:58:16Z</time>
      </trkpt>
      <trkpt lat="47.15491" lon="-1.47201">
        <ele>7</ele>
        <time>2023-11-14T06:59:38Z</time>
      </trkpt>
      <trkpt lat="47.15453" lon="-1.47183">
        <ele>7</ele>
        <time>2023-11-14T07:00:31Z</time>
      </trkpt>
      <trkpt lat="47.15435" lon="-1.47183">
        <ele>7</ele>
        <time>2023-11-14T07:00:55Z</time>
      </trkpt>
      <trkpt lat="47.15356" lon="-1.47141">
        <ele>5</ele>
        <time>2023-11-14T07:02:47Z</time>
      </trkpt>
      <trkpt lat="47.15277" lon="-1.47107">
        <ele>6</ele>
        <time>2023-11-14T07:04:37Z</time>
      </trkpt>
      <trkpt lat="47.15215" lon="-1.47076">
        <ele>6</ele>
        <time>2023-11-14T07:06:04Z</time>
      </trkpt>
      <trkpt lat="47.15179" lon="-1.47051">
        <ele>7</ele>
        <time>2023-11-14T07:06:57Z</time>
      </trkpt>
      <trkpt lat="47.15165" lon="-1.47033">
        <ele>7</ele>
        <time>2023-11-14T07:07:22Z</time>
      </trkpt>
      <trkpt lat="47.15146" lon="-1.46978">
        <ele>7</ele>
        <time>2023-11-14T07:08:18Z</time>
      </trkpt>
      <trkpt lat="47.15125" lon="-1.46928">
        <ele>6</ele>
        <time>2023-11-14T07:09:12Z</time>
      </trkpt>
      <trkpt lat="47.15124" lon="-1.469">
        <ele>4</ele>
        <time>2023-11-14T07:09:37Z</time>
      </trkpt>
      <trkpt lat="47.15119" lon="-1.46873">
        <ele>3</ele>
        <time>2023-11-14T07:10:02Z</time>
      </trkpt>
      <trkpt lat="47.15102" lon="-1.46859">
        <ele>3</ele>
        <time>2023-11-14T07:10:28Z</time>
      </trkpt>
      <trkpt lat="47.15082" lon="-1.46855">
        <ele>3</ele>
        <time>2023-11-14T07:10:55Z</time>
      </trkpt>
      <trkpt lat="47.15041" lon="-1.46864">
        <ele>7</ele>
        <time>2023-11-14T07:11:51Z</time>
      </trkpt>
      <trkpt lat="47.15021" lon="-1.46863">
        <ele>9</ele>
        <time>2023-11-14T07:12:17Z</time>
      </trkpt>
      <trkpt lat="47.15005" lon="-1.46876">
        <ele>11</ele>
        <time>2023-11-14T07:12:42Z</time>
      </trkpt>
      <trkpt lat="47.15009" lon="-1.46903">
        <ele>12</ele>
        <time>2023-11-14T07:13:07Z</time>
      </trkpt>
      <trkpt lat="47.1503" lon="-1.46912">
        <ele>10</ele>
        <time>2023-11-14T07:13:36Z</time>
      </trkpt>
      <trkpt lat="47.15045" lon="-1.46897">
        <ele>8</ele>
        <time>2023-11-14T07:14:00Z</time>
      </trkpt>
      <trkpt lat="47.15052" lon="-1.46872">
        <ele>6</ele>
        <time>2023-11-14T07:14:25Z</time>
      </trkpt>
      <trkpt lat="47.15048" lon="-1.46846">
        <ele>6</ele>
        <time>2023-11-14T07:14:49Z</time>
      </trkpt>
      <trkpt lat="47.15033" lon="-1.46819">
        <ele>6</ele>
        <time>2023-11-14T07:15:21Z</time>
      </trkpt>
      <trkpt lat="47.15025" lon="-1.46792">
        <ele>7</ele>
        <time>2023-11-14T07:15:47Z</time>
      </trkpt>
      <trkpt lat="47.15019" lon="-1.46755">
        <ele>7</ele>
        <time>2023-11-14T07:16:22Z</time>
      </trkpt>
      <trkpt lat="47.15017" lon="-1.46725">
        <ele>8</ele>
        <time>2023-11-14T07:16:49Z</time>
      </trkpt>
      <trkpt lat="47.15002" lon="-1.46707">
        <ele>9</ele>
        <time>2023-11-14T07:17:15Z</time>
      </trkpt>
      <trkpt lat="47.1499" lon="-1.46684">
        <ele>11</ele>
        <time>2023-11-14T07:17:41Z</time>
      </trkpt>
      <trkpt lat="47.14986" lon="-1.46656">
        <ele>12</ele>
        <time>2023-11-14T07:18:07Z</time>
      </trkpt>
      <trkpt lat="47.14986" lon="-1.46626">
        <ele>11</ele>
        <time>2023-11-14T07:18:34Z</time>
      </trkpt>
      <trkpt lat="47.1498" lon="-1.46591">
        <ele>12</ele>
        <time>2023-11-14T07:19:07Z</time>
      </trkpt>
      <trkpt lat="47.14979" lon="-1.46561">
        <ele>11</ele>
        <time>2023-11-14T07:19:35Z</time>
      </trkpt>
      <trkpt lat="47.14972" lon="-1.46535">
        <ele>12</ele>
        <time>2023-11-14T07:20:00Z</time>
      </trkpt>
      <trkpt lat="47.14973" lon="-1.46473">
        <ele>13</ele>
        <time>2023-11-14T07:20:56Z</time>
      </trkpt>
      <trkpt lat="47.14982" lon="-1.46443">
        <ele>12</ele>
        <time>2023-11-14T07:21:26Z</time>
      </trkpt>
      <trkpt lat="47.14983" lon="-1.46417">
        <ele>12</ele>
        <time>2023-11-14T07:21:50Z</time>
      </trkpt>
      <trkpt lat="47.14991" lon="-1.4639">
        <ele>11</ele>
        <time>2023-11-14T07:22:16Z</time>
      </trkpt>
      <trkpt lat="47.14993" lon="-1.46361">
        <ele>10</ele>
        <time>2023-11-14T07:22:43Z</time>
      </trkpt>
      <trkpt lat="47.14989" lon="-1.46334">
        <ele>11</ele>
        <time>2023-11-14T07:23:08Z</time>
      </trkpt>
      <trkpt lat="47.14991" lon="-1.463">
        <ele>11</ele>
        <time>2023-11-14T07:23:39Z</time>
      </trkpt>
      <trkpt lat="47.14979" lon="-1.4624">
        <ele>16</ele>
        <time>2023-11-14T07:24:36Z</time>
      </trkpt>
      <trkpt lat="47.1501" lon="-1.46211">
        <ele>11</ele>
        <time>2023-11-14T07:25:25Z</time>
      </trkpt>
      <trkpt lat="47.1502" lon="-1.4618">
        <ele>11</ele>
        <time>2023-11-14T07:25:56Z</time>
      </trkpt>
      <trkpt lat="47.15021" lon="-1.46153">
        <ele>11</ele>
        <time>2023-11-14T07:26:20Z</time>
      </trkpt>
      <trkpt lat="47.15032" lon="-1.46128">
        <ele>9</ele>
        <time>2023-11-14T07:26:47Z</time>
      </trkpt>
      <trkpt lat="47.15031" lon="-1.46089">
        <ele>9</ele>
        <time>2023-11-14T07:27:23Z</time>
      </trkpt>
      <trkpt lat="47.15022" lon="-1.4606">
        <ele>10</ele>
        <time>2023-11-14T07:27:52Z</time>
      </trkpt>
      <trkpt lat="47.15018" lon="-1.46026">
        <ele>9</ele>
        <time>2023-11-14T07:28:23Z</time>
      </trkpt>
      <trkpt lat="47.15009" lon="-1.45999">
        <ele>9</ele>
        <time>2023-11-14T07:28:50Z</time>
      </trkpt>
      <trkpt lat="47.15004" lon="-1.45971">
        <ele>10</ele>
        <time>2023-11-14T07:29:17Z</time>
      </trkpt>
      <trkpt lat="47.15029" lon="-1.45888">
        <ele>8</ele>
        <time>2023-11-14T07:30:39Z</time>
      </trkpt>
      <trkpt lat="47.15028" lon="-1.45855">
        <ele>8</ele>
        <time>2023-11-14T07:31:09Z</time>
      </trkpt>
      <trkpt lat="47.15024" lon="-1.45823">
        <ele>8</ele>
        <time>2023-11-14T07:31:38Z</time>
      </trkpt>
      <trkpt lat="47.15031" lon="-1.45761">
        <ele>8</ele>
        <time>2023-11-14T07:32:35Z</time>
      </trkpt>
      <trkpt lat="47.15029" lon="-1.45673">
        <ele>9</ele>
        <time>2023-11-14T07:33:55Z</time>
      </trkpt>
      <trkpt lat="47.15032" lon="-1.45615">
        <ele>9</ele>
        <time>2023-11-14T07:34:48Z</time>
      </trkpt>
      <trkpt lat="47.15051" lon="-1.45527">
        <ele>9</ele>
        <time>2023-11-14T07:36:12Z</time>
      </trkpt>
      <trkpt lat="47.1507" lon="-1.45468">
        <ele>8</ele>
        <time>2023-11-14T07:37:11Z</time>
      </trkpt>
      <trkpt lat="47.1507" lon="-1.45438">
        <ele>9</ele>
        <time>2023-11-14T07:37:38Z</time>
      </trkpt>
      <trkpt lat="47.15102" lon="-1.45404">
        <ele>8</ele>
        <time>2023-11-14T07:38:31Z</time>
      </trkpt>
      <trkpt lat="47.15114" lon="-1.4538">
        <ele>7</ele>
        <time>2023-11-14T07:38:58Z</time>
      </trkpt>
      <trkpt lat="47.15117" lon="-1.4535">
        <ele>7</ele>
        <time>2023-11-14T07:39:26Z</time>
      </trkpt>
      <trkpt lat="47.15127" lon="-1.45327">
        <ele>7</ele>
        <time>2023-11-14T07:39:50Z</time>
      </trkpt>
      <trkpt lat="47.15118" lon="-1.45302">
        <ele>8</ele>
        <time>2023-11-14T07:40:16Z</time>
      </trkpt>
      <trkpt lat="47.15098" lon="-1.45288">
        <ele>10</ele>
        <time>2023-11-14T07:40:46Z</time>
      </trkpt>
      <trkpt lat="47.15075" lon="-1.45291">
        <ele>13</ele>
        <time>2023-11-14T07:41:16Z</time>
      </trkpt>
      <trkpt lat="47.15059" lon="-1.45279">
        <ele>15</ele>
        <time>2023-11-14T07:41:40Z</time>
      </trkpt>
      <trkpt lat="47.1507" lon="-1.45254">
        <ele>14</ele>
        <time>2023-11-14T07:42:07Z</time>
      </trkpt>
      <trkpt lat="47.1506" lon="-1.4523">
        <ele>15</ele>
        <time>2023-11-14T07:42:33Z</time>
      </trkpt>
      <trkpt lat="47.15072" lon="-1.45209">
        <ele>14</ele>
        <time>2023-11-14T07:42:58Z</time>
      </trkpt>
      <trkpt lat="47.1507" lon="-1.4518">
        <ele>14</ele>
        <time>2023-11-14T07:43:24Z</time>
      </trkpt>
      <trkpt lat="47.15076" lon="-1.45148">
        <ele>13</ele>
        <time>2023-11-14T07:43:54Z</time>
      </trkpt>
      <trkpt lat="47.15071" lon="-1.45091">
        <ele>14</ele>
        <time>2023-11-14T07:44:47Z</time>
      </trkpt>
      <trkpt lat="47.15074" lon="-1.45063">
        <ele>13</ele>
        <time>2023-11-14T07:45:12Z</time>
      </trkpt>
      <trkpt lat="47.15065" lon="-1.45038">
        <ele>13</ele>
        <time>2023-11-14T07:45:38Z</time>
      </trkpt>
      <trkpt lat="47.15061" lon="-1.45008">
        <ele>13</ele>
        <time>2023-11-14T07:46:06Z</time>
      </trkpt>
      <trkpt lat="47.15072" lon="-1.44951">
        <ele>12</ele>
        <time>2023-11-14T07:47:00Z</time>
      </trkpt>
      <trkpt lat="47.15043" lon="-1.44947">
        <ele>13</ele>
        <time>2023-11-14T07:47:38Z</time>
      </trkpt>
      <trkpt lat="47.15026" lon="-1.44956">
        <ele>14</ele>
        <time>2023-11-14T07:48:03Z</time>
      </trkpt>
      <trkpt lat="47.15003" lon="-1.44955">
        <ele>15</ele>
        <time>2023-11-14T07:48:33Z</time>
      </trkpt>
      <trkpt lat="47.14983" lon="-1.44958">
        <ele>17</ele>
        <time>2023-11-14T07:49:00Z</time>
      </trkpt>
      <trkpt lat="47.14964" lon="-1.44955">
        <ele>18</ele>
        <time>2023-11-14T07:49:26Z</time>
      </trkpt>
      <trkpt lat="47.14943" lon="-1.44957">
        <ele>19</ele>
        <time>2023-11-14T07:49:54Z</time>
      </trkpt>
      <trkpt lat="47.14886" lon="-1.44992">
        <ele>22</ele>
        <time>2023-11-14T07:51:16Z</time>
      </trkpt>
      <trkpt lat="47.14867" lon="-1.44993">
        <ele>23</ele>
        <time>2023-11-14T07:51:41Z</time>
      </trkpt>
      <trkpt lat="47.14846" lon="-1.4499">
        <ele>23</ele>
        <time>2023-11-14T07:52:10Z</time>
      </trkpt>
      <trkpt lat="47.14827" lon="-1.44982">
        <ele>24</ele>
        <time>2023-11-14T07:52:36Z</time>
      </trkpt>
      <trkpt lat="47.14786" lon="-1.44975">
        <ele>24</ele>
        <time>2023-11-14T07:53:31Z</time>
      </trkpt>
      <trkpt lat="47.14767" lon="-1.44968">
        <ele>24</ele>
        <time>2023-11-14T07:53:57Z</time>
      </trkpt>
      <trkpt lat="47.14749" lon="-1.44965">
        <ele>24</ele>
        <time>2023-11-14T07:54:21Z</time>
      </trkpt>
      <trkpt lat="47.14729" lon="-1.44975">
        <ele>24</ele>
        <time>2023-11-14T07:54:50Z</time>
      </trkpt>
      <trkpt lat="47.1471" lon="-1.44972">
        <ele>24</ele>
        <time>2023-11-14T07:55:15Z</time>
      </trkpt>
      <trkpt lat="47.1469" lon="-1.44965">
        <ele>24</ele>
        <time>2023-11-14T07:55:42Z</time>
      </trkpt>
      <trkpt lat="47.1467" lon="-1.44944">
        <ele>23</ele>
        <time>2023-11-14T07:56:15Z</time>
      </trkpt>
      <trkpt lat="47.14619" lon="-1.44909">
        <ele>24</ele>
        <time>2023-11-14T07:57:30Z</time>
      </trkpt>
      <trkpt lat="47.14602" lon="-1.44893">
        <ele>25</ele>
        <time>2023-11-14T07:57:57Z</time>
      </trkpt>
      <trkpt lat="47.14588" lon="-1.44873">
        <ele>25</ele>
        <time>2023-11-14T07:58:23Z</time>
      </trkpt>
      <trkpt lat="47.14579" lon="-1.44847">
        <ele>26</ele>
        <time>2023-11-14T07:58:50Z</time>
      </trkpt>
      <trkpt lat="47.14567" lon="-1.44823">
        <ele>26</ele>
        <time>2023-11-14T07:59:17Z</time>
      </trkpt>
      <trkpt lat="47.1455" lon="-1.44804">
        <ele>26</ele>
        <time>2023-11-14T07:59:45Z</time>
      </trkpt>
      <trkpt lat="47.14537" lon="-1.44784">
        <ele>27</ele>
        <time>2023-11-14T08:00:10Z</time>
      </trkpt>
      <trkpt lat="47.14514" lon="-1.44736">
        <ele>28</ele>
        <time>2023-11-14T08:01:04Z</time>
      </trkpt>
      <trkpt lat="47.14498" lon="-1.44723">
        <ele>28</ele>
        <time>2023-11-14T08:01:28Z</time>
      </trkpt>
      <trkpt lat="47.14458" lon="-1.44726">
        <ele>29</ele>
        <time>2023-11-14T08:02:22Z</time>
      </trkpt>
      <trkpt lat="47.14438" lon="-1.44714">
        <ele>29</ele>
        <time>2023-11-14T08:02:50Z</time>
      </trkpt>
      <trkpt lat="47.14427" lon="-1.44689">
        <ele>29</ele>
        <time>2023-11-14T08:03:17Z</time>
      </trkpt>
      <trkpt lat="47.14379" lon="-1.44533">
        <ele>27</ele>
        <time>2023-11-14T08:05:53Z</time>
      </trkpt>
      <trkpt lat="47.14369" lon="-1.44508">
        <ele>27</ele>
        <time>2023-11-14T08:06:19Z</time>
      </trkpt>
      <trkpt lat="47.14349" lon="-1.44519">
        <ele>28</ele>
        <time>2023-11-14T08:06:48Z</time>
      </trkpt>
      <trkpt lat="47.14336" lon="-1.4454">
        <ele>28</ele>
        <time>2023-11-14T08:07:13Z</time>
      </trkpt>
      <trkpt lat="47.14318" lon="-1.4455">
        <ele>29</ele>
        <time>2023-11-14T08:07:39Z</time>
      </trkpt>
      <trkpt lat="47.14262" lon="-1.44566">
        <ele>31</ele>
        <time>2023-11-14T08:08:55Z</time>
      </trkpt>
      <trkpt lat="47.14242" lon="-1.44575">
        <ele>31</ele>
        <time>2023-11-14T08:09:23Z</time>
      </trkpt>
      <trkpt lat="47.14224" lon="-1.44578">
        <ele>32</ele>
        <time>2023-11-14T08:09:47Z</time>
      </trkpt>
      <trkpt lat="47.14146" lon="-1.44609">
        <ele>37</ele>
        <time>2023-11-14T08:11:35Z</time>
      </trkpt>
      <trkpt lat="47.14132" lon="-1.44585">
        <ele>40</ele>
        <time>2023-11-14T08:12:04Z</time>
      </trkpt>
      <trkpt lat="47.14128" lon="-1.44558">
        <ele>40</ele>
        <time>2023-11-14T08:12:29Z</time>
      </trkpt>
      <trkpt lat="47.14121" lon="-1.44533">
        <ele>40</ele>
        <time>2023-11-14T08:12:54Z</time>
      </trkpt>
      <trkpt lat="47.14119" lon="-1.44506">
        <ele>39</ele>
        <time>2023-11-14T08:13:18Z</time>
      </trkpt>
      <trkpt lat="47.14108" lon="-1.44483">
        <ele>39</ele>
        <time>2023-11-14T08:13:44Z</time>
      </trkpt>
      <trkpt lat="47.14083" lon="-1.44396">
        <ele>38</ele>
        <time>2023-11-14T08:15:09Z</time>
      </trkpt>
      <trkpt lat="47.14079" lon="-1.44339">
        <ele>34</ele>
        <time>2023-11-14T08:16:01Z</time>
      </trkpt>
      <trkpt lat="47.14084" lon="-1.44367">
        <ele>36</ele>
        <time>2023-11-14T08:16:28Z</time>
      </trkpt>
      <trkpt lat="47.14085" lon="-1.44339">
        <ele>34</ele>
        <time>2023-11-14T08:16:53Z</time>
      </trkpt>
      <trkpt lat="47.14068" lon="-1.44286">
        <ele>31</ele>
        <time>2023-11-14T08:17:46Z</time>
      </trkpt>
      <trkpt lat="47.14053" lon="-1.44263">
        <ele>30</ele>
        <time>2023-11-14T08:18:15Z</time>
      </trkpt>
      <trkpt lat="47.14041" lon="-1.44239">
        <ele>28</ele>
        <time>2023-11-14T08:18:42Z</time>
      </trkpt>
      <trkpt lat="47.14057" lon="-1.44152">
        <ele>23</ele>
        <time>2023-11-14T08:20:04Z</time>
      </trkpt>
      <trkpt lat="47.14059" lon="-1.44124">
        <ele>22</ele>
        <time>2023-11-14T08:20:30Z</time>
      </trkpt>
      <trkpt lat="47.14066" lon="-1.44097">
        <ele>20</ele>
        <time>2023-11-14T08:20:56Z</time>
      </trkpt>
      <trkpt lat="47.14074" lon="-1.44073">
        <ele>19</ele>
        <time>2023-11-14T08:21:20Z</time>
      </trkpt>
      <trkpt lat="47.14094" lon="-1.44059">
        <ele>19</ele>
        <time>2023-11-14T08:21:50Z</time>
      </trkpt>
      <trkpt lat="47.14096" lon="-1.44031">
        <ele>19</ele>
        <time>2023-11-14T08:22:15Z</time>
      </trkpt>
      <trkpt lat="47.14094" lon="-1.43997">
        <ele>20</ele>
        <time>2023-11-14T08:22:46Z</time>
      </trkpt>
      <trkpt lat="47.14078" lon="-1.43981">
        <ele>21</ele>
        <time>2023-11-14T08:23:12Z</time>
      </trkpt>
      <trkpt lat="47.14039" lon="-1.43973">
        <ele>23</ele>
        <time>2023-11-14T08:24:05Z</time>
      </trkpt>
      <trkpt lat="47.14021" lon="-1.43972">
        <ele>24</ele>
        <time>2023-11-14T08:24:29Z</time>
      </trkpt>
      <trkpt lat="47.13985" lon="-1.43976">
        <ele>25</ele>
        <time>2023-11-14T08:25:17Z</time>
      </trkpt>
      <trkpt lat="47.13965" lon="-1.43971">
        <ele>26</ele>
        <time>2023-11-14T08:25:44Z</time>
      </trkpt>
      <trkpt lat="47.13944" lon="-1.43969">
        <ele>27</ele>
        <time>2023-11-14T08:26:12Z</time>
      </trkpt>
      <trkpt lat="47.13925" lon="-1.43974">
        <ele>27</ele>
        <time>2023-11-14T08:26:38Z</time>
      </trkpt>
      <trkpt lat="47.13886" lon="-1.43967">
        <ele>29</ele>
        <time>2023-11-14T08:27:30Z</time>
      </trkpt>
      <trkpt lat="47.1387" lon="-1.43955">
        <ele>29</ele>
        <time>2023-11-14T08:27:54Z</time>
      </trkpt>
      <trkpt lat="47.1385" lon="-1.43958">
        <ele>30</ele>
        <time>2023-11-14T08:28:21Z</time>
      </trkpt>
      <trkpt lat="47.13832" lon="-1.43969">
        <ele>30</ele>
        <time>2023-11-14T08:28:47Z</time>
      </trkpt>
      <trkpt lat="47.13812" lon="-1.43986">
        <ele>31</ele>
        <time>2023-11-14T08:29:18Z</time>
      </trkpt>
      <trkpt lat="47.13781" lon="-1.44019">
        <ele>33</ele>
        <time>2023-11-14T08:30:09Z</time>
      </trkpt>
      <trkpt lat="47.13743" lon="-1.44088">
        <ele>35</ele>
        <time>2023-11-14T08:31:29Z</time>
      </trkpt>
      <trkpt lat="47.13728" lon="-1.44102">
        <ele>36</ele>
        <time>2023-11-14T08:31:53Z</time>
      </trkpt>
      <trkpt lat="47.13698" lon="-1.4414">
        <ele>37</ele>
        <time>2023-11-14T08:32:46Z</time>
      </trkpt>
      <trkpt lat="47.13681" lon="-1.44156">
        <ele>37</ele>
        <time>2023-11-14T08:33:13Z</time>
      </trkpt>
      <trkpt lat="47.13625" lon="-1.44233">
        <ele>37</ele>
        <time>2023-11-14T08:34:55Z</time>
      </trkpt>
      <trkpt lat="47.13537" lon="-1.44181">
        <ele>40</ele>
        <time>2023-11-14T08:37:02Z</time>
      </trkpt>
      <trkpt lat="47.13519" lon="-1.4416">
        <ele>41</ele>
        <time>2023-11-14T08:37:33Z</time>
      </trkpt>
      <trkpt lat="47.13502" lon="-1.44145">
        <ele>42</ele>
        <time>2023-11-14T08:37:59Z</time>
      </trkpt>
      <trkpt lat="47.13461" lon="-1.44143">
        <ele>43</ele>
        <time>2023-11-14T08:38:54Z</time>
      </trkpt>
      <trkpt lat="47.1344" lon="-1.44138">
        <ele>44</ele>
        <time>2023-11-14T08:39:22Z</time>
      </trkpt>
      <trkpt lat="47.13422" lon="-1.44137">
        <ele>44</ele>
        <time>2023-11-14T08:39:46Z</time>
      </trkpt>
      <trkpt lat="47.13403" lon="-1.44141">
        <ele>45</ele>
        <time>2023-11-14T08:40:12Z</time>
      </trkpt>
      <trkpt lat="47.13385" lon="-1.44153">
        <ele>45</ele>
        <time>2023-11-14T08:40:38Z</time>
      </trkpt>
      <trkpt lat="47.13353" lon="-1.44184">
        <ele>45</ele>
        <time>2023-11-14T08:41:29Z</time>
      </trkpt>
      <trkpt lat="47.13318" lon="-1.44207">
        <ele>46</ele>
        <time>2023-11-14T08:42:20Z</time>
      </trkpt>
      <trkpt lat="47.13299" lon="-1.44217">
        <ele>46</ele>
        <time>2023-11-14T08:42:47Z</time>
      </trkpt>
      <trkpt lat="47.1328" lon="-1.44221">
        <ele>47</ele>
        <time>2023-11-14T08:43:13Z</time>
      </trkpt>
      <trkpt lat="47.1321" lon="-1.44175">
        <ele>49</ele>
        <time>2023-11-14T08:44:55Z</time>
      </trkpt>
      <trkpt lat="47.13152" lon="-1.44148">
        <ele>50</ele>
        <time>2023-11-14T08:46:17Z</time>
      </trkpt>
      <trkpt lat="47.13117" lon="-1.44124">
        <ele>51</ele>
        <time>2023-11-14T08:47:08Z</time>
      </trkpt>
      <trkpt lat="47.13095" lon="-1.44114">
        <ele>51</ele>
        <time>2023-11-14T08:47:39Z</time>
      </trkpt>
      <trkpt lat="47.13078" lon="-1.441">
        <ele>52</ele>
        <time>2023-11-14T08:48:05Z</time>
      </trkpt>
      <trkpt lat="47.13098" lon="-1.44014">
        <ele>52</ele>
        <time>2023-11-14T08:49:27Z</time>
      </trkpt>
      <trkpt lat="47.13113" lon="-1.43961">
        <ele>51</ele>
        <time>2023-11-14T08:50:19Z</time>
      </trkpt>
      <trkpt lat="47.13089" lon="-1.43911">
        <ele>51</ele>
        <time>2023-11-14T08:51:15Z</time>
      </trkpt>
      <trkpt lat="47.1304" lon="-1.43741">
        <ele>52</ele>
        <time>2023-11-14T08:54:03Z</time>
      </trkpt>
      <trkpt lat="47.13022" lon="-1.43688">
        <ele>53</ele>
        <time>2023-11-14T08:54:56Z</time>
      </trkpt>
      <trkpt lat="47.12986" lon="-1.43688">
        <ele>54</ele>
        <time>2023-11-14T08:55:44Z</time>
      </trkpt>
      <trkpt lat="47.12929" lon="-1.43703">
        <ele>55</ele>
        <time>2023-11-14T08:57:02Z</time>
      </trkpt>
      <trkpt lat="47.12891" lon="-1.43722">
        <ele>55</ele>
        <time>2023-11-14T08:57:55Z</time>
      </trkpt>
      <trkpt lat="47.12854" lon="-1.4375">
        <ele>54</ele>
        <time>2023-11-14T08:58:51Z</time>
      </trkpt>
      <trkpt lat="47.12836" lon="-1.43755">
        <ele>54</ele>
        <time>2023-11-14T08:59:15Z</time>
      </trkpt>
      <trkpt lat="47.12782" lon="-1.43792">
        <ele>53</ele>
        <time>2023-11-14T09:00:35Z</time>
      </trkpt>
      <trkpt lat="47.12738" lon="-1.43809">
        <ele>54</ele>
        <time>2023-11-14T09:01:35Z</time>
      </trkpt>
      <trkpt lat="47.12719" lon="-1.43814">
        <ele>54</ele>
        <time>2023-11-14T09:02:01Z</time>
      </trkpt>
      <trkpt lat="47.12639" lon="-1.43848">
        <ele>54</ele>
        <time>2023-11-14T09:03:52Z</time>
      </trkpt>
      <trkpt lat="47.1262" lon="-1.43851">
        <ele>54</ele>
        <time>2023-11-14T09:04:18Z</time>
      </trkpt>
      <trkpt lat="47.12601" lon="-1.43845">
        <ele>54</ele>
        <time>2023-11-14T09:04:44Z</time>
      </trkpt>
      <trkpt lat="47.12586" lon="-1.4383">
        <ele>55</ele>
        <time>2023-11-14T09:05:08Z</time>
      </trkpt>
      <trkpt lat="47.12534" lon="-1.43793">
        <ele>54</ele>
        <time>2023-11-14T09:06:25Z</time>
      </trkpt>
      <trkpt lat="47.12504" lon="-1.43758">
        <ele>55</ele>
        <time>2023-11-14T09:07:16Z</time>
      </trkpt>
      <trkpt lat="47.12454" lon="-1.43709">
        <ele>53</ele>
        <time>2023-11-14T09:08:36Z</time>
      </trkpt>
      <trkpt lat="47.12438" lon="-1.43689">
        <ele>52</ele>
        <time>2023-11-14T09:09:04Z</time>
      </trkpt>
      <trkpt lat="47.124" lon="-1.43622">
        <ele>51</ele>
        <time>2023-11-14T09:10:24Z</time>
      </trkpt>
      <trkpt lat="47.12273" lon="-1.43429">
        <ele>52</ele>
        <time>2023-11-14T09:14:27Z</time>
      </trkpt>
      <trkpt lat="47.12212" lon="-1.43308">
        <ele>52</ele>
        <time>2023-11-14T09:16:44Z</time>
      </trkpt>
      <trkpt lat="47.12161" lon="-1.43184">
        <ele>51</ele>
        <time>2023-11-14T09:18:56Z</time>
      </trkpt>
      <trkpt lat="47.12114" lon="-1.43097">
        <ele>52</ele>
        <time>2023-11-14T09:20:37Z</time>
      </trkpt>
      <trkpt lat="47.12088" lon="-1.43055">
        <ele>52</ele>
        <time>2023-11-14T09:21:28Z</time>
      </trkpt>
      <trkpt lat="47.12039" lon="-1.43014">
        <ele>51</ele>
        <time>2023-11-14T09:22:43Z</time>
      </trkpt>
      <trkpt lat="47.11985" lon="-1.42957">
        <ele>50</ele>
        <time>2023-11-14T09:24:12Z</time>
      </trkpt>
      <trkpt lat="47.11943" lon="-1.42887">
        <ele>50</ele>
        <time>2023-11-14T09:25:37Z</time>
      </trkpt>
      <trkpt lat="47.11914" lon="-1.42846">
        <ele>50</ele>
        <time>2023-11-14T09:26:31Z</time>
      </trkpt>
      <trkpt lat="47.11891" lon="-1.42802">
        <ele>49</ele>
        <time>2023-11-14T09:27:21Z</time>
      </trkpt>
      <trkpt lat="47.11876" lon="-1.42746">
        <ele>48</ele>
        <time>2023-11-14T09:28:16Z</time>
      </trkpt>
      <trkpt lat="47.11857" lon="-1.42692">
        <ele>47</ele>
        <time>2023-11-14T09:29:11Z</time>
      </trkpt>
      <trkpt lat="47.11821" lon="-1.42622">
        <ele>45</ele>
        <time>2023-11-14T09:30:30Z</time>
      </trkpt>
      <trkpt lat="47.11809" lon="-1.42567">
        <ele>45</ele>
        <time>2023-11-14T09:31:23Z</time>
      </trkpt>
      <trkpt lat="47.11783" lon="-1.42479">
        <ele>45</ele>
        <time>2023-11-14T09:32:50Z</time>
      </trkpt>
      <trkpt lat="47.11769" lon="-1.4242">
        <ele>45</ele>
        <time>2023-11-14T09:33:47Z</time>
      </trkpt>
      <trkpt lat="47.1176" lon="-1.42394">
        <ele>45</ele>
        <time>2023-11-14T09:34:13Z</time>
      </trkpt>
      <trkpt lat="47.11752" lon="-1.42338">
        <ele>43</ele>
        <time>2023-11-14T09:35:05Z</time>
      </trkpt>
      <trkpt lat="47.11745" lon="-1.42311">
        <ele>43</ele>
        <time>2023-11-14T09:35:31Z</time>
      </trkpt>
      <trkpt lat="47.11734" lon="-1.42287">
        <ele>42</ele>
        <time>2023-11-14T09:35:58Z</time>
      </trkpt>
      <trkpt lat="47.11703" lon="-1.42247">
        <ele>40</ele>
        <time>2023-11-14T09:36:53Z</time>
      </trkpt>
      <trkpt lat="47.11694" lon="-1.4222">
        <ele>38</ele>
        <time>2023-11-14T09:37:20Z</time>
      </trkpt>
      <trkpt lat="47.11709" lon="-1.42205">
        <ele>39</ele>
        <time>2023-11-14T09:37:44Z</time>
      </trkpt>
      <trkpt lat="47.11746" lon="-1.42185">
        <ele>43</ele>
        <time>2023-11-14T09:38:37Z</time>
      </trkpt>
      <trkpt lat="47.11783" lon="-1.42161">
        <ele>44</ele>
        <time>2023-11-14T09:39:31Z</time>
      </trkpt>
      <trkpt lat="47.11798" lon="-1.42145">
        <ele>45</ele>
        <time>2023-11-14T09:39:56Z</time>
      </trkpt>
      <trkpt lat="47.11857" lon="-1.42106">
        <ele>46</ele>
        <time>2023-11-14T09:41:22Z</time>
      </trkpt>
      <trkpt lat="47.11913" lon="-1.42072">
        <ele>46</ele>
        <time>2023-11-14T09:42:43Z</time>
      </trkpt>
      <trkpt lat="47.11932" lon="-1.42068">
        <ele>46</ele>
        <time>2023-11-14T09:43:08Z</time>
      </trkpt>
      <trkpt lat="47.11953" lon="-1.4206">
        <ele>46</ele>
        <time>2023-11-14T09:43:37Z</time>
      </trkpt>
      <trkpt lat="47.11972" lon="-1.42047">
        <ele>46</ele>
        <time>2023-11-14T09:44:05Z</time>
      </trkpt>
      <trkpt lat="47.12031" lon="-1.42027">
        <ele>47</ele>
        <time>2023-11-14T09:45:26Z</time>
      </trkpt>
      <trkpt lat="47.12049" lon="-1.42025">
        <ele>47</ele>
        <time>2023-11-14T09:45:50Z</time>
      </trkpt>
      <trkpt lat="47.12091" lon="-1.42013">
        <ele>47</ele>
        <time>2023-11-14T09:46:47Z</time>
      </trkpt>
      <trkpt lat="47.1211" lon="-1.42011">
        <ele>46</ele>
        <time>2023-11-14T09:47:13Z</time>
      </trkpt>
      <trkpt lat="47.12131" lon="-1.42017">
        <ele>46</ele>
        <time>2023-11-14T09:47:41Z</time>
      </trkpt>
      <trkpt lat="47.12167" lon="-1.42005">
        <ele>45</ele>
        <time>2023-11-14T09:48:31Z</time>
      </trkpt>
      <trkpt lat="47.12186" lon="-1.42007">
        <ele>46</ele>
        <time>2023-11-14T09:48:56Z</time>
      </trkpt>
      <trkpt lat="47.12227" lon="-1.42018">
        <ele>48</ele>
        <time>2023-11-14T09:49:52Z</time>
      </trkpt>
      <trkpt lat="47.12287" lon="-1.42012">
        <ele>49</ele>
        <time>2023-11-14T09:51:12Z</time>
      </trkpt>
      <trkpt lat="47.12307" lon="-1.42019">
        <ele>50</ele>
        <time>2023-11-14T09:51:39Z</time>
      </trkpt>
      <trkpt lat="47.12327" lon="-1.42019">
        <ele>51</ele>
        <time>2023-11-14T09:52:06Z</time>
      </trkpt>
      <trkpt lat="47.1238" lon="-1.41976">
        <ele>49</ele>
        <time>2023-11-14T09:53:27Z</time>
      </trkpt>
      <trkpt lat="47.12395" lon="-1.41956">
        <ele>48</ele>
        <time>2023-11-14T09:53:54Z</time>
      </trkpt>
      <trkpt lat="47.12417" lon="-1.41953">
        <ele>50</ele>
        <time>2023-11-14T09:54:23Z</time>
      </trkpt>
      <trkpt lat="47.12436" lon="-1.41936">
        <ele>49</ele>
        <time>2023-11-14T09:54:53Z</time>
      </trkpt>
      <trkpt lat="47.1245" lon="-1.41919">
        <ele>49</ele>
        <time>2023-11-14T09:55:17Z</time>
      </trkpt>
      <trkpt lat="47.12453" lon="-1.41892">
        <ele>46</ele>
        <time>2023-11-14T09:55:42Z</time>
      </trkpt>
      <trkpt lat="47.12438" lon="-1.41867">
        <ele>41</ele>
        <time>2023-11-14T09:56:12Z</time>
      </trkpt>
      <trkpt lat="47.12429" lon="-1.41842">
        <ele>36</ele>
        <time>2023-11-14T09:56:38Z</time>
      </trkpt>
      <trkpt lat="47.12418" lon="-1.41821">
        <ele>31</ele>
        <time>2023-11-14T09:57:02Z</time>
      </trkpt>
      <trkpt lat="47.12443" lon="-1.41872">
        <ele>42</ele>
        <time>2023-11-14T09:57:59Z</time>
      </trkpt>
      <trkpt lat="47.12461" lon="-1.4189">
        <ele>46</ele>
        <time>2023-11-14T09:58:28Z</time>
      </trkpt>
      <trkpt lat="47.1248" lon="-1.41892">
        <ele>47</ele>
        <time>2023-11-14T09:58:54Z</time>
      </trkpt>
      <trkpt lat="47.12514" lon="-1.4186">
        <ele>47</ele>
        <time>2023-11-14T09:59:47Z</time>
      </trkpt>
      <trkpt lat="47.12538" lon="-1.41816">
        <ele>44</ele>
        <time>2023-11-14T10:00:39Z</time>
      </trkpt>
      <trkpt lat="47.12547" lon="-1.4179">
        <ele>41</ele>
        <time>2023-11-14T10:01:05Z</time>
      </trkpt>
      <trkpt lat="47.12556" lon="-1.41736">
        <ele>35</ele>
        <time>2023-11-14T10:01:56Z</time>
      </trkpt>
      <trkpt lat="47.12557" lon="-1.41681">
        <ele>27</ele>
        <time>2023-11-14T10:02:46Z</time>
      </trkpt>
      <trkpt lat="47.12567" lon="-1.41655">
        <ele>24</ele>
        <time>2023-11-14T10:03:13Z</time>
      </trkpt>
      <trkpt lat="47.12582" lon="-1.41639">
        <ele>23</ele>
        <time>2023-11-14T10:03:37Z</time>
      </trkpt>
      <trkpt lat="47.12619" lon="-1.4161">
        <ele>21</ele>
        <time>2023-11-14T10:04:33Z</time>
      </trkpt>
      <trkpt lat="47.12611" lon="-1.41584">
        <ele>16</ele>
        <time>2023-11-14T10:04:59Z</time>
      </trkpt>
      <trkpt lat="47.12581" lon="-1.41539">
        <ele>11</ele>
        <time>2023-11-14T10:05:56Z</time>
      </trkpt>
      <trkpt lat="47.1256" lon="-1.4149">
        <ele>9</ele>
        <time>2023-11-14T10:06:49Z</time>
      </trkpt>
      <trkpt lat="47.12533" lon="-1.41446">
        <ele>12</ele>
        <time>2023-11-14T10:07:43Z</time>
      </trkpt>
      <trkpt lat="47.12528" lon="-1.41421">
        <ele>14</ele>
        <time>2023-11-14T10:08:07Z</time>
      </trkpt>
      <trkpt lat="47.12547" lon="-1.41407">
        <ele>14</ele>
        <time>2023-11-14T10:08:35Z</time>
      </trkpt>
      <trkpt lat="47.12568" lon="-1.41396">
        <ele>13</ele>
        <time>2023-11-14T10:09:05Z</time>
      </trkpt>
      <trkpt lat="47.12585" lon="-1.41381">
        <ele>14</ele>
        <time>2023-11-14T10:09:31Z</time>
      </trkpt>
      <trkpt lat="47.12616" lon="-1.41337">
        <ele>17</ele>
        <time>2023-11-14T10:10:29Z</time>
      </trkpt>
      <trkpt lat="47.12635" lon="-1.4134">
        <ele>15</ele>
        <time>2023-11-14T10:10:54Z</time>
      </trkpt>
      <trkpt lat="47.12651" lon="-1.41323">
        <ele>16</ele>
        <time>2023-11-14T10:11:20Z</time>
      </trkpt>
      <trkpt lat="47.12685" lon="-1.41297">
        <ele>18</ele>
        <time>2023-11-14T10:12:12Z</time>
      </trkpt>
      <trkpt lat="47.12723" lon="-1.41279">
        <ele>17</ele>
        <time>2023-11-14T10:13:05Z</time>
      </trkpt>
      <trkpt lat="47.12741" lon="-1.41266">
        <ele>17</ele>
        <time>2023-11-14T10:13:32Z</time>
      </trkpt>
      <trkpt lat="47.12759" lon="-1.4126">
        <ele>16</ele>
        <time>2023-11-14T10:13:56Z</time>
      </trkpt>
      <trkpt lat="47.12797" lon="-1.41234">
        <ele>18</ele>
        <time>2023-11-14T10:14:52Z</time>
      </trkpt>
      <trkpt lat="47.12854" lon="-1.41223">
        <ele>16</ele>
        <time>2023-11-14T10:16:09Z</time>
      </trkpt>
      <trkpt lat="47.12892" lon="-1.41227">
        <ele>13</ele>
        <time>2023-11-14T10:17:00Z</time>
      </trkpt>
      <trkpt lat="47.12912" lon="-1.41225">
        <ele>12</ele>
        <time>2023-11-14T10:17:27Z</time>
      </trkpt>
      <trkpt lat="47.12934" lon="-1.41226">
        <ele>12</ele>
        <time>2023-11-14T10:17:56Z</time>
      </trkpt>
      <trkpt lat="47.12953" lon="-1.41222">
        <ele>13</ele>
        <time>2023-11-14T10:18:22Z</time>
      </trkpt>
      <trkpt lat="47.12972" lon="-1.4123">
        <ele>12</ele>
        <time>2023-11-14T10:18:48Z</time>
      </trkpt>
      <trkpt lat="47.12988" lon="-1.41244">
        <ele>10</ele>
        <time>2023-11-14T10:19:13Z</time>
      </trkpt>
      <trkpt lat="47.13047" lon="-1.41262">
        <ele>10</ele>
        <time>2023-11-14T10:20:33Z</time>
      </trkpt>
      <trkpt lat="47.13087" lon="-1.4127">
        <ele>10</ele>
        <time>2023-11-14T10:21:27Z</time>
      </trkpt>
      <trkpt lat="47.13108" lon="-1.41268">
        <ele>11</ele>
        <time>2023-11-14T10:21:55Z</time>
      </trkpt>
      <trkpt lat="47.1313" lon="-1.41273">
        <ele>11</ele>
        <time>2023-11-14T10:22:25Z</time>
      </trkpt>
      <trkpt lat="47.13188" lon="-1.41276">
        <ele>12</ele>
        <time>2023-11-14T10:23:42Z</time>
      </trkpt>
      <trkpt lat="47.13208" lon="-1.4128">
        <ele>13</ele>
        <time>2023-11-14T10:24:09Z</time>
      </trkpt>
      <trkpt lat="47.13229" lon="-1.41288">
        <ele>13</ele>
        <time>2023-11-14T10:24:38Z</time>
      </trkpt>
      <trkpt lat="47.13249" lon="-1.41291">
        <ele>14</ele>
        <time>2023-11-14T10:25:05Z</time>
      </trkpt>
      <trkpt lat="47.13265" lon="-1.41307">
        <ele>14</ele>
        <time>2023-11-14T10:25:31Z</time>
      </trkpt>
      <trkpt lat="47.13284" lon="-1.41317">
        <ele>15</ele>
        <time>2023-11-14T10:25:58Z</time>
      </trkpt>
      <trkpt lat="47.133" lon="-1.41331">
        <ele>16</ele>
        <time>2023-11-14T10:26:23Z</time>
      </trkpt>
      <trkpt lat="47.1332" lon="-1.41342">
        <ele>17</ele>
        <time>2023-11-14T10:26:51Z</time>
      </trkpt>
      <trkpt lat="47.13394" lon="-1.41406">
        <ele>13</ele>
        <time>2023-11-14T10:28:46Z</time>
      </trkpt>
      <trkpt lat="47.1345" lon="-1.41442">
        <ele>12</ele>
        <time>2023-11-14T10:30:07Z</time>
      </trkpt>
      <trkpt lat="47.13468" lon="-1.41446">
        <ele>13</ele>
        <time>2023-11-14T10:30:31Z</time>
      </trkpt>
      <trkpt lat="47.13527" lon="-1.41468">
        <ele>14</ele>
        <time>2023-11-14T10:31:53Z</time>
      </trkpt>
      <trkpt lat="47.13546" lon="-1.41478">
        <ele>14</ele>
        <time>2023-11-14T10:32:20Z</time>
      </trkpt>
      <trkpt lat="47.13584" lon="-1.41506">
        <ele>15</ele>
        <time>2023-11-14T10:33:16Z</time>
      </trkpt>
      <trkpt lat="47.13602" lon="-1.41504">
        <ele>16</ele>
        <time>2023-11-14T10:33:40Z</time>
      </trkpt>
      <trkpt lat="47.1362" lon="-1.4151">
        <ele>17</ele>
        <time>2023-11-14T10:34:05Z</time>
      </trkpt>
      <trkpt lat="47.13638" lon="-1.4152">
        <ele>18</ele>
        <time>2023-11-14T10:34:31Z</time>
      </trkpt>
      <trkpt lat="47.13668" lon="-1.41555">
        <ele>17</ele>
        <time>2023-11-14T10:35:22Z</time>
      </trkpt>
      <trkpt lat="47.13706" lon="-1.41627">
        <ele>14</ele>
        <time>2023-11-14T10:36:45Z</time>
      </trkpt>
      <trkpt lat="47.13735" lon="-1.4167">
        <ele>11</ele>
        <time>2023-11-14T10:37:40Z</time>
      </trkpt>
      <trkpt lat="47.13754" lon="-1.41684">
        <ele>11</ele>
        <time>2023-11-14T10:38:08Z</time>
      </trkpt>
      <trkpt lat="47.13784" lon="-1.41723">
        <ele>10</ele>
        <time>2023-11-14T10:39:01Z</time>
      </trkpt>
      <trkpt lat="47.13859" lon="-1.41778">
        <ele>9</ele>
        <time>2023-11-14T10:40:53Z</time>
      </trkpt>
      <trkpt lat="47.13878" lon="-1.41785">
        <ele>9</ele>
        <time>2023-11-14T10:41:19Z</time>
      </trkpt>
      <trkpt lat="47.13918" lon="-1.41794">
        <ele>10</ele>
        <time>2023-11-14T10:42:13Z</time>
      </trkpt>
      <trkpt lat="47.13939" lon="-1.41795">
        <ele>11</ele>
        <time>2023-11-14T10:42:41Z</time>
      </trkpt>
      <trkpt lat="47.13957" lon="-1.41805">
        <ele>11</ele>
        <time>2023-11-14T10:43:07Z</time>
      </trkpt>
      <trkpt lat="47.13975" lon="-1.41822">
        <ele>11</ele>
        <time>2023-11-14T10:43:36Z</time>
      </trkpt>
      <trkpt lat="47.13992" lon="-1.41834">
        <ele>11</ele>
        <time>2023-11-14T10:44:01Z</time>
      </trkpt>
      <trkpt lat="47.14034" lon="-1.41846">
        <ele>12</ele>
        <time>2023-11-14T10:44:58Z</time>
      </trkpt>
      <trkpt lat="47.14051" lon="-1.41867">
        <ele>12</ele>
        <time>2023-11-14T10:45:28Z</time>
      </trkpt>
      <trkpt lat="47.14056" lon="-1.41893">
        <ele>10</ele>
        <time>2023-11-14T10:45:52Z</time>
      </trkpt>
      <trkpt lat="47.14082" lon="-1.41936">
        <ele>8</ele>
        <time>2023-11-14T10:46:44Z</time>
      </trkpt>
      <trkpt lat="47.14162" lon="-1.42024">
        <ele>8</ele>
        <time>2023-11-14T10:48:58Z</time>
      </trkpt>
      <trkpt lat="47.1419" lon="-1.42067">
        <ele>9</ele>
        <time>2023-11-14T10:49:52Z</time>
      </trkpt>
      <trkpt lat="47.142" lon="-1.42091">
        <ele>9</ele>
        <time>2023-11-14T10:50:17Z</time>
      </trkpt>
      <trkpt lat="47.14279" lon="-1.4219">
        <ele>12</ele>
        <time>2023-11-14T10:52:36Z</time>
      </trkpt>
      <trkpt lat="47.14333" lon="-1.4228">
        <ele>9</ele>
        <time>2023-11-14T10:54:25Z</time>
      </trkpt>
      <trkpt lat="47.1438" lon="-1.4237">
        <ele>9</ele>
        <time>2023-11-14T10:56:08Z</time>
      </trkpt>
      <trkpt lat="47.14391" lon="-1.42398">
        <ele>9</ele>
        <time>2023-11-14T10:56:37Z</time>
      </trkpt>
      <trkpt lat="47.1441" lon="-1.4241">
        <ele>11</ele>
        <time>2023-11-14T10:57:05Z</time>
      </trkpt>
      <trkpt lat="47.14485" lon="-1.42358">
        <ele>20</ele>
        <time>2023-11-14T10:58:55Z</time>
      </trkpt>
      <trkpt lat="47.14519" lon="-1.4233">
        <ele>22</ele>
        <time>2023-11-14T10:59:47Z</time>
      </trkpt>
      <trkpt lat="47.14537" lon="-1.42311">
        <ele>23</ele>
        <time>2023-11-14T11:00:17Z</time>
      </trkpt>
      <trkpt lat="47.14547" lon="-1.42288">
        <ele>22</ele>
        <time>2023-11-14T11:00:42Z</time>
      </trkpt>
      <trkpt lat="47.14536" lon="-1.4226">
        <ele>22</ele>
        <time>2023-11-14T11:01:11Z</time>
      </trkpt>
      <trkpt lat="47.14534" lon="-1.42231">
        <ele>22</ele>
        <time>2023-11-14T11:01:37Z</time>
      </trkpt>
      <trkpt lat="47.14609" lon="-1.4219">
        <ele>17</ele>
        <time>2023-11-14T11:03:24Z</time>
      </trkpt>
      <trkpt lat="47.14631" lon="-1.42182">
        <ele>15</ele>
        <time>2023-11-14T11:03:54Z</time>
      </trkpt>
      <trkpt lat="47.14673" lon="-1.42156">
        <ele>10</ele>
        <time>2023-11-14T11:04:55Z</time>
      </trkpt>
      <trkpt lat="47.14691" lon="-1.42148">
        <ele>9</ele>
        <time>2023-11-14T11:05:20Z</time>
      </trkpt>
      <trkpt lat="47.14711" lon="-1.42161">
        <ele>8</ele>
        <time>2023-11-14T11:05:49Z</time>
      </trkpt>
      <trkpt lat="47.14776" lon="-1.42235">
        <ele>8</ele>
        <time>2023-11-14T11:07:39Z</time>
      </trkpt>
      <trkpt lat="47.1481" lon="-1.42262">
        <ele>10</ele>
        <time>2023-11-14T11:08:31Z</time>
      </trkpt>
      <trkpt lat="47.14833" lon="-1.42274">
        <ele>12</ele>
        <time>2023-11-14T11:09:03Z</time>
      </trkpt>
      <trkpt lat="47.14852" lon="-1.42277">
        <ele>12</ele>
        <time>2023-11-14T11:09:29Z</time>
      </trkpt>
      <trkpt lat="47.14873" lon="-1.42277">
        <ele>12</ele>
        <time>2023-11-14T11:09:57Z</time>
      </trkpt>
      <trkpt lat="47.14911" lon="-1.42286">
        <ele>12</ele>
        <time>2023-11-14T11:10:48Z</time>
      </trkpt>
      <trkpt lat="47.14951" lon="-1.42289">
        <ele>12</ele>
        <time>2023-11-14T11:11:42Z</time>
      </trkpt>
      <trkpt lat="47.14991" lon="-1.4231">
        <ele>14</ele>
        <time>2023-11-14T11:12:38Z</time>
      </trkpt>
      <trkpt lat="47.15027" lon="-1.42333">
        <ele>14</ele>
        <time>2023-11-14T11:13:31Z</time>
      </trkpt>
      <trkpt lat="47.15046" lon="-1.42349">
        <ele>14</ele>
        <time>2023-11-14T11:14:00Z</time>
      </trkpt>
      <trkpt lat="47.15059" lon="-1.42368">
        <ele>15</ele>
        <time>2023-11-14T11:14:24Z</time>
      </trkpt>
      <trkpt lat="47.15077" lon="-1.42387">
        <ele>15</ele>
        <time>2023-11-14T11:14:54Z</time>
      </trkpt>
      <trkpt lat="47.15094" lon="-1.424">
        <ele>15</ele>
        <time>2023-11-14T11:15:20Z</time>
      </trkpt>
      <trkpt lat="47.15098" lon="-1.42429">
        <ele>17</ele>
        <time>2023-11-14T11:15:46Z</time>
      </trkpt>
      <trkpt lat="47.15108" lon="-1.42458">
        <ele>17</ele>
        <time>2023-11-14T11:16:16Z</time>
      </trkpt>
      <trkpt lat="47.15148" lon="-1.42525">
        <ele>15</ele>
        <time>2023-11-14T11:17:37Z</time>
      </trkpt>
      <trkpt lat="47.15177" lon="-1.42561">
        <ele>16</ele>
        <time>2023-11-14T11:18:27Z</time>
      </trkpt>
      <trkpt lat="47.15201" lon="-1.42611">
        <ele>17</ele>
        <time>2023-11-14T11:19:23Z</time>
      </trkpt>
      <trkpt lat="47.15211" lon="-1.4264">
        <ele>18</ele>
        <time>2023-11-14T11:19:53Z</time>
      </trkpt>
      <trkpt lat="47.15226" lon="-1.42661">
        <ele>17</ele>
        <time>2023-11-14T11:20:20Z</time>
      </trkpt>
      <trkpt lat="47.15235" lon="-1.42689">
        <ele>18</ele>
        <time>2023-11-14T11:20:48Z</time>
      </trkpt>
      <trkpt lat="47.15239" lon="-1.42744">
        <ele>21</ele>
        <time>2023-11-14T11:21:38Z</time>
      </trkpt>
      <trkpt lat="47.15262" lon="-1.42855">
        <ele>22</ele>
        <time>2023-11-14T11:23:24Z</time>
      </trkpt>
      <trkpt lat="47.15264" lon="-1.42911">
        <ele>23</ele>
        <time>2023-11-14T11:24:15Z</time>
      </trkpt>
      <trkpt lat="47.15268" lon="-1.42942">
        <ele>23</ele>
        <time>2023-11-14T11:24:43Z</time>
      </trkpt>
      <trkpt lat="47.15257" lon="-1.42964">
        <ele>24</ele>
        <time>2023-11-14T11:25:08Z</time>
      </trkpt>
      <trkpt lat="47.15241" lon="-1.42986">
        <ele>25</ele>
        <time>2023-11-14T11:25:37Z</time>
      </trkpt>
      <trkpt lat="47.1524" lon="-1.43014">
        <ele>25</ele>
        <time>2023-11-14T11:26:03Z</time>
      </trkpt>
      <trkpt lat="47.15261" lon="-1.43065">
        <ele>21</ele>
        <time>2023-11-14T11:26:57Z</time>
      </trkpt>
      <trkpt lat="47.15277" lon="-1.4312">
        <ele>18</ele>
        <time>2023-11-14T11:27:51Z</time>
      </trkpt>
      <trkpt lat="47.15287" lon="-1.43144">
        <ele>16</ele>
        <time>2023-11-14T11:28:17Z</time>
      </trkpt>
      <trkpt lat="47.15304" lon="-1.43201">
        <ele>12</ele>
        <time>2023-11-14T11:29:13Z</time>
      </trkpt>
      <trkpt lat="47.15309" lon="-1.4323">
        <ele>11</ele>
        <time>2023-11-14T11:29:40Z</time>
      </trkpt>
      <trkpt lat="47.15299" lon="-1.43287">
        <ele>12</ele>
        <time>2023-11-14T11:30:34Z</time>
      </trkpt>
      <trkpt lat="47.15284" lon="-1.43338">
        <ele>13</ele>
        <time>2023-11-14T11:31:24Z</time>
      </trkpt>
      <trkpt lat="47.15282" lon="-1.43366">
        <ele>13</ele>
        <time>2023-11-14T11:31:50Z</time>
      </trkpt>
      <trkpt lat="47.15285" lon="-1.43424">
        <ele>12</ele>
        <time>2023-11-14T11:32:42Z</time>
      </trkpt>
      <trkpt lat="47.15289" lon="-1.43453">
        <ele>12</ele>
        <time>2023-11-14T11:33:09Z</time>
      </trkpt>
      <trkpt lat="47.15295" lon="-1.43482">
        <ele>12</ele>
        <time>2023-11-14T11:33:37Z</time>
      </trkpt>
      <trkpt lat="47.15311" lon="-1.43535">
        <ele>10</ele>
        <time>2023-11-14T11:34:29Z</time>
      </trkpt>
      <trkpt lat="47.15319" lon="-1.4359">
        <ele>9</ele>
        <time>2023-11-14T11:35:21Z</time>
      </trkpt>
      <trkpt lat="47.15315" lon="-1.43621">
        <ele>10</ele>
        <time>2023-11-14T11:35:49Z</time>
      </trkpt>
      <trkpt lat="47.15318" lon="-1.43683">
        <ele>11</ele>
        <time>2023-11-14T11:36:46Z</time>
      </trkpt>
      <trkpt lat="47.15313" lon="-1.43711">
        <ele>12</ele>
        <time>2023-11-14T11:37:12Z</time>
      </trkpt>
      <trkpt lat="47.15317" lon="-1.43772">
        <ele>12</ele>
        <time>2023-11-14T11:38:07Z</time>
      </trkpt>
      <trkpt lat="47.15314" lon="-1.43833">
        <ele>10</ele>
        <time>2023-11-14T11:39:03Z</time>
      </trkpt>
      <trkpt lat="47.1529" lon="-1.43881">
        <ele>13</ele>
        <time>2023-11-14T11:39:57Z</time>
      </trkpt>
      <trkpt lat="47.15295" lon="-1.43907">
        <ele>12</ele>
        <time>2023-11-14T11:40:22Z</time>
      </trkpt>
      <trkpt lat="47.15326" lon="-1.43952">
        <ele>7</ele>
        <time>2023-11-14T11:41:20Z</time>
      </trkpt>
      <trkpt lat="47.15339" lon="-1.43977">
        <ele>6</ele>
        <time>2023-11-14T11:41:48Z</time>
      </trkpt>
      <trkpt lat="47.15369" lon="-1.4402">
        <ele>9</ele>
        <time>2023-11-14T11:42:44Z</time>
      </trkpt>
      <trkpt lat="47.15382" lon="-1.44046">
        <ele>11</ele>
        <time>2023-11-14T11:43:13Z</time>
      </trkpt>
      <trkpt lat="47.15385" lon="-1.44077">
        <ele>13</ele>
        <time>2023-11-14T11:43:42Z</time>
      </trkpt>
      <trkpt lat="47.1538" lon="-1.44104">
        <ele>13</ele>
        <time>2023-11-14T11:44:07Z</time>
      </trkpt>
      <trkpt lat="47.15365" lon="-1.44121">
        <ele>12</ele>
        <time>2023-11-14T11:44:32Z</time>
      </trkpt>
      <trkpt lat="47.15369" lon="-1.44063">
        <ele>11</ele>
        <time>2023-11-14T11:45:25Z</time>
      </trkpt>
      <trkpt lat="47.15358" lon="-1.44039">
        <ele>9</ele>
        <time>2023-11-14T11:45:52Z</time>
      </trkpt>
      <trkpt lat="47.1533" lon="-1.44078">
        <ele>8</ele>
        <time>2023-11-14T11:46:43Z</time>
      </trkpt>
      <trkpt lat="47.15308" lon="-1.44122">
        <ele>8</ele>
        <time>2023-11-14T11:47:33Z</time>
      </trkpt>
      <trkpt lat="47.1529" lon="-1.44142">
        <ele>8</ele>
        <time>2023-11-14T11:48:03Z</time>
      </trkpt>
      <trkpt lat="47.15279" lon="-1.44164">
        <ele>8</ele>
        <time>2023-11-14T11:48:28Z</time>
      </trkpt>
      <trkpt lat="47.15249" lon="-1.44211">
        <ele>5</ele>
        <time>2023-11-14T11:49:26Z</time>
      </trkpt>
      <trkpt lat="47.15227" lon="-1.44256">
        <ele>8</ele>
        <time>2023-11-14T11:50:16Z</time>
      </trkpt>
      <trkpt lat="47.15226" lon="-1.44284">
        <ele>9</ele>
        <time>2023-11-14T11:50:42Z</time>
      </trkpt>
      <trkpt lat="47.15286" lon="-1.44442">
        <ele>5</ele>
        <time>2023-11-14T11:53:26Z</time>
      </trkpt>
      <trkpt lat="47.15306" lon="-1.4449">
        <ele>4</ele>
        <time>2023-11-14T11:54:17Z</time>
      </trkpt>
      <trkpt lat="47.15329" lon="-1.44534">
        <ele>5</ele>
        <time>2023-11-14T11:55:07Z</time>
      </trkpt>
      <trkpt lat="47.1536" lon="-1.44576">
        <ele>7</ele>
        <time>2023-11-14T11:56:04Z</time>
      </trkpt>
      <trkpt lat="47.15395" lon="-1.44607">
        <ele>9</ele>
        <time>2023-11-14T11:56:58Z</time>
      </trkpt>
      <trkpt lat="47.15405" lon="-1.44634">
        <ele>11</ele>
        <time>2023-11-14T11:57:26Z</time>
      </trkpt>
      <trkpt lat="47.15424" lon="-1.44643">
        <ele>12</ele>
        <time>2023-11-14T11:57:53Z</time>
      </trkpt>
      <trkpt lat="47.15428" lon="-1.44736">
        <ele>13</ele>
        <time>2023-11-14T11:59:17Z</time>
      </trkpt>
      <trkpt lat="47.15423" lon="-1.44765">
        <ele>13</ele>
        <time>2023-11-14T11:59:45Z</time>
      </trkpt>
      <trkpt lat="47.15423" lon="-1.44823">
        <ele>12</ele>
        <time>2023-11-14T12:00:37Z</time>
      </trkpt>
      <trkpt lat="47.15432" lon="-1.44876">
        <ele>13</ele>
        <time>2023-11-14T12:01:27Z</time>
      </trkpt>
      <trkpt lat="47.15426" lon="-1.44906">
        <ele>12</ele>
        <time>2023-11-14T12:01:55Z</time>
      </trkpt>
      <trkpt lat="47.15428" lon="-1.44937">
        <ele>12</ele>
        <time>2023-11-14T12:02:23Z</time>
      </trkpt>
      <trkpt lat="47.15415" lon="-1.45058">
        <ele>11</ele>
        <time>2023-11-14T12:04:15Z</time>
      </trkpt>
      <trkpt lat="47.15418" lon="-1.45084">
        <ele>11</ele>
        <time>2023-11-14T12:04:38Z</time>
      </trkpt>
      <trkpt lat="47.15438" lon="-1.45173">
        <ele>9</ele>
        <time>2023-11-14T12:06:04Z</time>
      </trkpt>
      <trkpt lat="47.15446" lon="-1.45204">
        <ele>9</ele>
        <time>2023-11-14T12:06:34Z</time>
      </trkpt>
      <trkpt lat="47.15459" lon="-1.45228">
        <ele>10</ele>
        <time>2023-11-14T12:07:01Z</time>
      </trkpt>
      <trkpt lat="47.15496" lon="-1.45234">
        <ele>13</ele>
        <time>2023-11-14T12:07:51Z</time>
      </trkpt>
      <trkpt lat="47.15515" lon="-1.45234">
        <ele>14</ele>
        <time>2023-11-14T12:08:16Z</time>
      </trkpt>
      <trkpt lat="47.15534" lon="-1.45228">
        <ele>14</ele>
        <time>2023-11-14T12:08:42Z</time>
      </trkpt>
      <trkpt lat="47.15549" lon="-1.45211">
        <ele>14</ele>
        <time>2023-11-14T12:09:08Z</time>
      </trkpt>
      <trkpt lat="47.15549" lon="-1.45184">
        <ele>14</ele>
        <time>2023-11-14T12:09:32Z</time>
      </trkpt>
      <trkpt lat="47.15537" lon="-1.45127">
        <ele>16</ele>
        <time>2023-11-14T12:10:26Z</time>
      </trkpt>
      <trkpt lat="47.15536" lon="-1.45095">
        <ele>16</ele>
        <time>2023-11-14T12:10:55Z</time>
      </trkpt>
      <trkpt lat="47.15635" lon="-1.4504">
        <ele>19</ele>
        <time>2023-11-14T12:13:17Z</time>
      </trkpt>
      <trkpt lat="47.15668" lon="-1.45018">
        <ele>21</ele>
        <time>2023-11-14T12:14:05Z</time>
      </trkpt>
      <trkpt lat="47.15688" lon="-1.45031">
        <ele>22</ele>
        <time>2023-11-14T12:14:34Z</time>
      </trkpt>
      <trkpt lat="47.15702" lon="-1.4505">
        <ele>22</ele>
        <time>2023-11-14T12:15:00Z</time>
      </trkpt>
      <trkpt lat="47.15715" lon="-1.45077">
        <ele>21</ele>
        <time>2023-11-14T12:15:30Z</time>
      </trkpt>
      <trkpt lat="47.1572" lon="-1.45104">
        <ele>22</ele>
        <time>2023-11-14T12:15:55Z</time>
      </trkpt>
      <trkpt lat="47.15721" lon="-1.45133">
        <ele>22</ele>
        <time>2023-11-14T12:16:21Z</time>
      </trkpt>
      <trkpt lat="47.15726" lon="-1.45166">
        <ele>23</ele>
        <time>2023-11-14T12:16:52Z</time>
      </trkpt>
      <trkpt lat="47.15745" lon="-1.45247">
        <ele>27</ele>
        <time>2023-11-14T12:18:10Z</time>
      </trkpt>
      <trkpt lat="47.15753" lon="-1.45271">
        <ele>27</ele>
        <time>2023-11-14T12:18:34Z</time>
      </trkpt>
      <trkpt lat="47.15768" lon="-1.45364">
        <ele>29</ele>
        <time>2023-11-14T12:20:01Z</time>
      </trkpt>
      <trkpt lat="47.15786" lon="-1.45374">
        <ele>30</ele>
        <time>2023-11-14T12:20:26Z</time>
      </trkpt>
      <trkpt lat="47.15807" lon="-1.45378">
        <ele>31</ele>
        <time>2023-11-14T12:20:55Z</time>
      </trkpt>
      <trkpt lat="47.15824" lon="-1.45389">
        <ele>32</ele>
        <time>2023-11-14T12:21:19Z</time>
      </trkpt>
      <trkpt lat="47.15824" lon="-1.45416">
        <ele>32</ele>
        <time>2023-11-14T12:21:44Z</time>
      </trkpt>
      <trkpt lat="47.15808" lon="-1.45588">
        <ele>30</ele>
        <time>2023-11-14T12:24:21Z</time>
      </trkpt>
      <trkpt lat="47.15801" lon="-1.45615">
        <ele>30</ele>
        <time>2023-11-14T12:24:48Z</time>
      </trkpt>
      <trkpt lat="47.15742" lon="-1.45699">
        <ele>30</ele>
        <time>2023-11-14T12:26:37Z</time>
      </trkpt>
      <trkpt lat="47.15679" lon="-1.45772">
        <ele>30</ele>
        <time>2023-11-14T12:28:24Z</time>
      </trkpt>
      <trkpt lat="47.15674" lon="-1.45797">
        <ele>30</ele>
        <time>2023-11-14T12:28:48Z</time>
      </trkpt>
      <trkpt lat="47.15676" lon="-1.45829">
        <ele>30</ele>
        <time>2023-11-14T12:29:17Z</time>
      </trkpt>
      <trkpt lat="47.15669" lon="-1.4586">
        <ele>30</ele>
        <time>2023-11-14T12:29:47Z</time>
      </trkpt>
      <trkpt lat="47.15653" lon="-1.4588">
        <ele>30</ele>
        <time>2023-11-14T12:30:15Z</time>
      </trkpt>
      <trkpt lat="47.15618" lon="-1.459">
        <ele>29</ele>
        <time>2023-11-14T12:31:05Z</time>
      </trkpt>
      <trkpt lat="47.1558" lon="-1.45926">
        <ele>29</ele>
        <time>2023-11-14T12:32:01Z</time>
      </trkpt>
      <trkpt lat="47.15563" lon="-1.45946">
        <ele>27</ele>
        <time>2023-11-14T12:32:30Z</time>
      </trkpt>
      <trkpt lat="47.15543" lon="-1.45958">
        <ele>26</ele>
        <time>2023-11-14T12:32:59Z</time>
      </trkpt>
      <trkpt lat="47.15528" lon="-1.45973">
        <ele>24</ele>
        <time>2023-11-14T12:33:23Z</time>
      </trkpt>
      <trkpt lat="47.15511" lon="-1.45983">
        <ele>23</ele>
        <time>2023-11-14T12:33:47Z</time>
      </trkpt>
      <trkpt lat="47.15493" lon="-1.46005">
        <ele>21</ele>
        <time>2023-11-14T12:34:19Z</time>
      </trkpt>
      <trkpt lat="47.15456" lon="-1.46034">
        <ele>19</ele>
        <time>2023-11-14T12:35:15Z</time>
      </trkpt>
      <trkpt lat="47.15422" lon="-1.45989">
        <ele>15</ele>
        <time>2023-11-14T12:36:16Z</time>
      </trkpt>
      <trkpt lat="47.15401" lon="-1.46002">
        <ele>14</ele>
        <time>2023-11-14T12:36:46Z</time>
      </trkpt>
      <trkpt lat="47.15385" lon="-1.46016">
        <ele>14</ele>
        <time>2023-11-14T12:37:11Z</time>
      </trkpt>
      <trkpt lat="47.15365" lon="-1.46023">
        <ele>13</ele>
        <time>2023-11-14T12:37:38Z</time>
      </trkpt>
      <trkpt lat="47.15348" lon="-1.46033">
        <ele>13</ele>
        <time>2023-11-14T12:38:03Z</time>
      </trkpt>
      <trkpt lat="47.15332" lon="-1.46051">
        <ele>14</ele>
        <time>2023-11-14T12:38:30Z</time>
      </trkpt>
      <trkpt lat="47.15324" lon="-1.46076">
        <ele>15</ele>
        <time>2023-11-14T12:38:55Z</time>
      </trkpt>
      <trkpt lat="47.15323" lon="-1.46142">
        <ele>16</ele>
        <time>2023-11-14T12:39:55Z</time>
      </trkpt>
      <trkpt lat="47.15327" lon="-1.46174">
        <ele>16</ele>
        <time>2023-11-14T12:40:24Z</time>
      </trkpt>
      <trkpt lat="47.15327" lon="-1.46204">
        <ele>16</ele>
        <time>2023-11-14T12:40:51Z</time>
      </trkpt>
      <trkpt lat="47.15314" lon="-1.4626">
        <ele>15</ele>
        <time>2023-11-14T12:41:45Z</time>
      </trkpt>
      <trkpt lat="47.15311" lon="-1.46289">
        <ele>14</ele>
        <time>2023-11-14T12:42:12Z</time>
      </trkpt>
      <trkpt lat="47.15314" lon="-1.46343">
        <ele>14</ele>
        <time>2023-11-14T12:43:01Z</time>
      </trkpt>
      <trkpt lat="47.15322" lon="-1.4637">
        <ele>13</ele>
        <time>2023-11-14T12:43:28Z</time>
      </trkpt>
      <trkpt lat="47.1532" lon="-1.46399">
        <ele>12</ele>
        <time>2023-11-14T12:43:54Z</time>
      </trkpt>
      <trkpt lat="47.15282" lon="-1.46413">
        <ele>9</ele>
        <time>2023-11-14T12:44:46Z</time>
      </trkpt>
      <trkpt lat="47.15289" lon="-1.46441">
        <ele>9</ele>
        <time>2023-11-14T12:45:13Z</time>
      </trkpt>
      <trkpt lat="47.15332" lon="-1.46531">
        <ele>8</ele>
        <time>2023-11-14T12:46:53Z</time>
      </trkpt>
      <trkpt lat="47.15334" lon="-1.46562">
        <ele>7</ele>
        <time>2023-11-14T12:47:21Z</time>
      </trkpt>
      <trkpt lat="47.15312" lon="-1.46612">
        <ele>6</ele>
        <time>2023-11-14T12:48:15Z</time>
      </trkpt>
      <trkpt lat="47.15311" lon="-1.46639">
        <ele>6</ele>
        <time>2023-11-14T12:48:40Z</time>
      </trkpt>
      <trkpt lat="47.15314" lon="-1.46672">
        <ele>6</ele>
        <time>2023-11-14T12:49:10Z</time>
      </trkpt>
      <trkpt lat="47.15339" lon="-1.46753">
        <ele>6</ele>
        <time>2023-11-14T12:50:31Z</time>
      </trkpt>
      <trkpt lat="47.15343" lon="-1.46781">
        <ele>5</ele>
        <time>2023-11-14T12:50:57Z</time>
      </trkpt>
      <trkpt lat="47.15364" lon="-1.46854">
        <ele>5</ele>
        <time>2023-11-14T12:52:09Z</time>
      </trkpt>
      <trkpt lat="47.15383" lon="-1.46864">
        <ele>5</ele>
        <time>2023-11-14T12:52:36Z</time>
      </trkpt>
      <trkpt lat="47.15401" lon="-1.46883">
        <ele>6</ele>
        <time>2023-11-14T12:53:05Z</time>
      </trkpt>
      <trkpt lat="47.1546" lon="-1.46965">
        <ele>7</ele>
        <time>2023-11-14T12:54:54Z</time>
      </trkpt>
      <trkpt lat="47.15475" lon="-1.46981">
        <ele>8</ele>
        <time>2023-11-14T12:55:18Z</time>
      </trkpt>
      <trkpt lat="47.15495" lon="-1.46993">
        <ele>8</ele>
        <time>2023-11-14T12:55:47Z</time>
      </trkpt>
      <trkpt lat="47.15557" lon="-1.47014">
        <ele>9</ele>
        <time>2023-11-14T12:57:12Z</time>
      </trkpt>
      <trkpt lat="47.15593" lon="-1.47033">
        <ele>9</ele>
        <time>2023-11-14T12:58:03Z</time>
      </trkpt>
      <trkpt lat="47.15615" lon="-1.47037">
        <ele>8</ele>
        <time>2023-11-14T12:58:33Z</time>
      </trkpt>
      <trkpt lat="47.15634" lon="-1.47037">
        <ele>8</ele>
        <time>2023-11-14T12:58:58Z</time>
      </trkpt>
      <trkpt lat="47.15664" lon="-1.47081">
        <ele>6</ele>
        <time>2023-11-14T12:59:55Z</time>
      </trkpt>
      <trkpt lat="47.15681" lon="-1.4709">
        <ele>7</ele>
        <time>2023-11-14T13:00:19Z</time>
      </trkpt>
      <trkpt lat="47.15714" lon="-1.47125">
        <ele>7</ele>
        <time>2023-11-14T13:01:13Z</time>
      </trkpt>
      <trkpt lat="47.15744" lon="-1.47162">
        <ele>7</ele>
        <time>2023-11-14T13:02:05Z</time>
      </trkpt>
      <trkpt lat="47.15796" lon="-1.47217">
        <ele>9</ele>
        <time>2023-11-14T13:03:31Z</time>
      </trkpt>
      <trkpt lat="47.15805" lon="-1.4724">
        <ele>9</ele>
        <time>2023-11-14T13:03:55Z</time>
      </trkpt>
      <trkpt lat="47.15819" lon="-1.47264">
        <ele>10</ele>
        <time>2023-11-14T13:04:24Z</time>
      </trkpt>
      <trkpt lat="47.15824" lon="-1.4729">
        <ele>9</ele>
        <time>2023-11-14T13:04:48Z</time>
      </trkpt>
      <trkpt lat="47.15878" lon="-1.47381">
        <ele>9</ele>
        <time>2023-11-14T13:06:38Z</time>
      </trkpt>
      <trkpt lat="47.15909" lon="-1.47427">
        <ele>9</ele>
        <time>2023-11-14T13:07:36Z</time>
      </trkpt>
      <trkpt lat="47.15924" lon="-1.47445">
        <ele>9</ele>
        <time>2023-11-14T13:08:02Z</time>
      </trkpt>
      <trkpt lat="47.15942" lon="-1.47457">
        <ele>9</ele>
        <time>2023-11-14T13:08:29Z</time>
      </trkpt>
      <trkpt lat="47.15975" lon="-1.47492">
        <ele>8</ele>
        <time>2023-11-14T13:09:23Z</time>
      </trkpt>
      <trkpt lat="47.15995" lon="-1.47508">
        <ele>8</ele>
        <time>2023-11-14T13:09:53Z</time>
      </trkpt>
      <trkpt lat="47.16027" lon="-1.47548">
        <ele>7</ele>
        <time>2023-11-14T13:10:49Z</time>
      </trkpt>
      <trkpt lat="47.16035" lon="-1.47572">
        <ele>6</ele>
        <time>2023-11-14T13:11:14Z</time>
      </trkpt>
      <trkpt lat="47.16051" lon="-1.47595">
        <ele>5</ele>
        <time>2023-11-14T13:11:43Z</time>
      </trkpt>
      <trkpt lat="47.16084" lon="-1.47671">
        <ele>5</ele>
        <time>2023-11-14T13:13:05Z</time>
      </trkpt>
      <trkpt lat="47.1611" lon="-1.47719">
        <ele>5</ele>
        <time>2023-11-14T13:14:01Z</time>
      </trkpt>
      <trkpt lat="47.1614" lon="-1.47797">
        <ele>5</ele>
        <time>2023-11-14T13:15:22Z</time>
      </trkpt>
      <trkpt lat="47.16155" lon="-1.47816">
        <ele>5</ele>
        <time>2023-11-14T13:15:49Z</time>
      </trkpt>
      <trkpt lat="47.16159" lon="-1.47848">
        <ele>5</ele>
        <time>2023-11-14T13:16:18Z</time>
      </trkpt>
      <trkpt lat="47.16158" lon="-1.47881">
        <ele>5</ele>
        <time>2023-11-14T13:16:48Z</time>
      </trkpt>
      <trkpt lat="47.16176" lon="-1.4793">
        <ele>5</ele>
        <time>2023-11-14T13:17:39Z</time>
      </trkpt>
      <trkpt lat="47.16192" lon="-1.47949">
        <ele>5</ele>
        <time>2023-11-14T13:18:06Z</time>
      </trkpt>
      <trkpt lat="47.16205" lon="-1.4797">
        <ele>5</ele>
        <time>2023-11-14T13:18:32Z</time>
      </trkpt>
      <trkpt lat="47.16205" lon="-1.48002">
        <ele>6</ele>
        <time>2023-11-14T13:19:01Z</time>
      </trkpt>
      <trkpt lat="47.16211" lon="-1.4803">
        <ele>7</ele>
        <time>2023-11-14T13:19:28Z</time>
      </trkpt>
      <trkpt lat="47.16241" lon="-1.48067">
        <ele>8</ele>
        <time>2023-11-14T13:20:20Z</time>
      </trkpt>
      <trkpt lat="47.16256" lon="-1.48092">
        <ele>8</ele>
        <time>2023-11-14T13:20:50Z</time>
      </trkpt>
      <trkpt lat="47.1627" lon="-1.48109">
        <ele>9</ele>
        <time>2023-11-14T13:21:14Z</time>
      </trkpt>
      <trkpt lat="47.16289" lon="-1.48125">
        <ele>9</ele>
        <time>2023-11-14T13:21:44Z</time>
      </trkpt>
      <trkpt lat="47.16318" lon="-1.48169">
        <ele>9</ele>
        <time>2023-11-14T13:22:39Z</time>
      </trkpt>
      <trkpt lat="47.16333" lon="-1.48183">
        <ele>9</ele>
        <time>2023-11-14T13:23:03Z</time>
      </trkpt>
      <trkpt lat="47.16388" lon="-1.48194">
        <ele>6</ele>
        <time>2023-11-14T13:24:17Z</time>
      </trkpt>
      <trkpt lat="47.16411" lon="-1.48193">
        <ele>5</ele>
        <time>2023-11-14T13:24:48Z</time>
      </trkpt>
      <trkpt lat="47.16434" lon="-1.48197">
        <ele>5</ele>
        <time>2023-11-14T13:25:19Z</time>
      </trkpt>
      <trkpt lat="47.16455" lon="-1.48196">
        <ele>5</ele>
        <time>2023-11-14T13:25:47Z</time>
      </trkpt>
      <trkpt lat="47.16473" lon="-1.48186">
        <ele>5</ele>
        <time>2023-11-14T13:26:12Z</time>
      </trkpt>
      <trkpt lat="47.16486" lon="-1.48166">
        <ele>4</ele>
        <time>2023-11-14T13:26:37Z</time>
      </trkpt>
      <trkpt lat="47.16504" lon="-1.48171">
        <ele>4</ele>
        <time>2023-11-14T13:27:02Z</time>
      </trkpt>
      <trkpt lat="47.1653" lon="-1.48129">
        <ele>5</ele>
        <time>2023-11-14T13:27:53Z</time>
      </trkpt>
      <trkpt lat="47.1654" lon="-1.48071">
        <ele>5</ele>
        <time>2023-11-14T13:28:48Z</time>
      </trkpt>
      <trkpt lat="47.16557" lon="-1.4802">
        <ele>5</ele>
        <time>2023-11-14T13:29:39Z</time>
      </trkpt>
      <trkpt lat="47.16552" lon="-1.47994">
        <ele>5</ele>
        <time>2023-11-14T13:30:04Z</time>
      </trkpt>
      <trkpt lat="47.16559" lon="-1.47967">
        <ele>6</ele>
        <time>2023-11-14T13:30:30Z</time>
      </trkpt>
      <trkpt lat="47.16576" lon="-1.47955">
        <ele>6</ele>
        <time>2023-11-14T13:30:55Z</time>
      </trkpt>
    </trkseg>
  </trk>
</gpx>